HEATHEGN

Guest
Details From HEAT - ASYUT INTL
To HEGN - HURGHADA INTL
Flight Number -
Tags generated
Created
Modified
Stats Distance 151 nm / 281 km
Max Altitude 17,400 ft / 5,304 m
Waypoints 5
Social Downloads 0
Likes 0
Share VATSIM

Download

Looking for another format? Having issues loading an existing format? Contact us
Advertisement - Login to hide

Notes

Basic altitude profile: - Ascent Rate: 2500ft/min - Ascent Speed: 250kts - Cruise Altitude: 20000ft - Cruise Speed: 420kts - Descent Rate: 1500ft/min - Descent Speed: 250kts Options: - Use NATs: yes - Use PACOTS: yes - Use low airways: yes - Use high airways: yes

Route

HEAT AST V608 HGD HEGN

ID Type Via Altitude Latitude Longitude Leg Dist Tot Dist Heading (true) Name
O HEAT APT - 0 ft / 0 m 27.04651˚ 31.01198˚ - 0 nm - ASYUT INTL
AST VOR - 500 ft / 152 m 27.03122˚ 31.03250˚ 1 nm 1 nm 130° / 130° ASYUT VOR-DME
NABED FIX V608 (AWY-LO) 17,400 ft / 5,304 m 27.30028˚ 32.28500˚ 68 nm 70 nm 76° / 77° -
HGD VOR V608 (AWY-LO) 9,500 ft / 2,896 m 27.17776˚ 33.79639˚ 81 nm 151 nm 95° / 96° HURGHADA VOR-DME
O HEGN APT - 0 ft / 0 m 27.17831˚ 33.79940˚ 0 nm 151 nm 78° / 78° HURGHADA INTL

Altitude Profile

Advertisement - Login to hide

HEAT

Details ICAO HEAT (ATZ)
Name ASYUT INTL
Region Egypt
Timezone Africa/Cairo (UTC+2.0)
Stats Elevation 772 ft / 235 m (AMSL)
Location 27.046508° 31.011982°
Runways 1
Magnetic Variation 4.140° E

METAR

HEAT 110400Z 00000KT CAVOK 07/05 Q1020 NOSIG

Decode

TAF

Not found

Departure Runways

ID Width Length Bearing (true) Bearing (mag) Surface Threshold Offset Overrun Length
13 148 ft / 45 m 9,910 ft / 3,021 m 129.98° 125.84° Asphalt 0 ft / 0 m 190 ft / 58 m
31 148 ft / 45 m 9,910 ft / 3,021 m 309.99° 305.85° Asphalt 0 ft / 0 m 190 ft / 58 m

HEGN

Details ICAO HEGN (HRG)
Name HURGHADA INTL
Region Egypt
Timezone Africa/Cairo (UTC+2.0)
Stats Elevation 52 ft / 16 m (AMSL)
Location 27.178308° 33.799397°
Runways 1
Magnetic Variation 4.211° E

METAR

HEGN 110400Z 30005KT CAVOK 13/M01 Q1019 NOSIG

Decode

TAF

Not found

Destination Runways

ID Width Length Bearing (true) Bearing (mag) Surface Threshold Offset Overrun Length
16 148 ft / 45 m 13,169 ft / 4,014 m 165.29° 161.08° Asphalt 985 ft / 300 m 0 ft / 0 m
34 148 ft / 45 m 13,169 ft / 4,014 m 345.29° 341.08° Asphalt 0 ft / 0 m 200 ft / 61 m

Approach Navaids

Runway Type Ident Frequency Range Bearing (true) Bearing (mag) Slope Elevation
34 Localiser HIL 110.30 MHz 18 nm / 33 km 347.43° 343.22° - 56 ft / 17 m (AMSL)
34 Glidescope HIL 110.30 MHz 10 nm / 19 km 345.29° 341.08° 3.00° 64 ft / 20 m (AMSL)
34 DME HIL 110.30 MHz 18 nm / 33 km - - - 30 ft / 9 m (AMSL)

Popular Alternatives